createdAt,value
2019-01-26T00:09:13.520Z,-2.20
2019-01-26T00:11:42.918Z,-2.20
2019-01-26T00:14:12.409Z,-2.20
2019-01-26T00:16:41.885Z,-2.20
2019-01-26T00:19:11.393Z,-2.20
2019-01-26T00:21:40.811Z,-2.20
2019-01-26T00:24:10.208Z,-2.20
2019-01-26T00:26:39.624Z,-2.20
2019-01-26T00:29:09.023Z,-2.20
2019-01-26T00:31:38.511Z,-2.20
2019-01-26T00:34:07.978Z,-2.20
2019-01-26T00:36:37.361Z,-2.20
2019-01-26T00:39:08.923Z,-2.20
2019-01-26T00:41:38.483Z,-2.20
2019-01-26T00:44:07.873Z,-2.20
2019-01-26T00:46:37.273Z,-2.20
2019-01-26T00:49:06.941Z,-2.20
2019-01-26T00:51:36.449Z,-2.10
2019-01-26T00:54:05.925Z,-2.10
2019-01-26T00:56:35.353Z,-2.10
2019-01-26T00:59:05.029Z,-2.10
2019-01-26T01:01:34.493Z,-2.10
2019-01-26T01:04:04.496Z,-2.10
2019-01-26T01:06:33.902Z,-2.10
2019-01-26T01:09:04.854Z,-2.10
2019-01-26T01:11:34.259Z,-2.00
2019-01-26T01:14:03.741Z,-2.00
2019-01-26T01:16:36.026Z,-2.00
2019-01-26T01:19:04.409Z,-2.00
2019-01-26T01:21:33.812Z,-2.00
2019-01-26T01:24:03.316Z,-2.00
2019-01-26T01:26:34.030Z,-2.00
2019-01-26T01:29:03.592Z,-2.00
2019-01-26T01:31:33.061Z,-2.00
2019-01-26T01:34:02.452Z,-2.00
2019-01-26T01:36:31.873Z,-2.00
2019-01-26T01:39:01.270Z,-2.00
2019-01-26T01:41:30.734Z,-1.90
2019-01-26T01:44:00.166Z,-1.90
2019-01-26T01:46:29.568Z,-1.90
2019-01-26T01:48:59.046Z,-1.90
2019-01-26T01:51:28.536Z,-1.90
2019-01-26T01:53:57.954Z,-1.90
2019-01-26T01:56:27.412Z,-1.90
2019-01-26T01:58:56.820Z,-1.90
2019-01-26T02:01:26.220Z,-1.90
2019-01-26T02:03:55.703Z,-1.90
2019-01-26T02:06:25.104Z,-1.90
2019-01-26T02:08:54.505Z,-1.90
2019-01-26T02:11:23.935Z,-1.90
2019-01-26T02:13:53.341Z,-1.90
2019-01-26T02:16:22.752Z,-1.90
2019-01-26T02:18:52.337Z,-1.90
2019-01-26T02:21:21.880Z,-1.90
2019-01-26T02:23:51.300Z,-1.90
2019-01-26T02:26:20.765Z,-1.90
2019-01-26T02:28:50.191Z,-1.90
2019-01-26T02:31:19.590Z,-1.90
2019-01-26T02:33:49.006Z,-1.90
2019-01-26T02:36:18.478Z,-1.90
2019-01-26T02:38:47.974Z,-1.90
2019-01-26T02:41:17.433Z,-1.90
2019-01-26T02:43:46.829Z,-1.90
2019-01-26T02:46:16.239Z,-1.90
2019-01-26T02:48:45.734Z,-1.90
2019-01-26T02:51:15.150Z,-1.90
2019-01-26T02:53:44.592Z,-1.90
2019-01-26T02:56:14.008Z,-1.90
2019-01-26T02:58:43.434Z,-1.80
2019-01-26T03:01:12.828Z,-1.90
2019-01-26T03:03:42.712Z,-1.90
2019-01-26T03:06:12.184Z,-1.90
2019-01-26T03:08:41.772Z,-1.90
2019-01-26T03:11:11.240Z,-1.90
2019-01-26T03:13:40.668Z,-1.90
2019-01-26T03:16:10.320Z,-1.90
2019-01-26T03:18:39.738Z,-1.90
2019-01-26T03:21:09.292Z,-1.80
2019-01-26T03:23:38.863Z,-1.80
2019-01-26T03:26:08.255Z,-1.80
2019-01-26T03:28:37.669Z,-1.80
2019-01-26T03:31:07.070Z,-1.80
2019-01-26T03:33:36.505Z,-1.80
2019-01-26T03:36:05.901Z,-1.80
2019-01-26T03:38:35.295Z,-1.80
2019-01-26T03:41:04.870Z,-1.80
2019-01-26T03:43:34.423Z,-1.80
2019-01-26T03:46:04.197Z,-1.80
2019-01-26T03:48:33.674Z,-1.80
2019-01-26T03:51:03.150Z,-1.80
2019-01-26T03:53:32.557Z,-1.80
2019-01-26T03:56:02.036Z,-1.80
2019-01-26T03:58:32.894Z,-1.80
2019-01-26T04:01:02.444Z,-1.80
2019-01-26T04:03:31.990Z,-1.80
2019-01-26T04:06:01.666Z,-1.80
2019-01-26T04:08:31.132Z,-1.80
2019-01-26T04:11:00.596Z,-1.80
2019-01-26T04:13:29.978Z,-1.80
2019-01-26T04:15:59.460Z,-1.70
2019-01-26T04:18:28.866Z,-1.80
2019-01-26T04:20:58.266Z,-1.70
2019-01-26T04:23:27.668Z,-1.70
2019-01-26T04:25:57.083Z,-1.70
2019-01-26T04:28:26.469Z,-1.70
2019-01-26T04:30:55.981Z,-1.70
2019-01-26T04:33:25.446Z,-1.70
2019-01-26T04:35:54.873Z,-1.70
2019-01-26T04:38:24.602Z,-1.70
2019-01-26T04:40:54.001Z,-1.70
2019-01-26T04:43:23.409Z,-1.60
2019-01-26T04:45:52.814Z,-1.60
2019-01-26T04:48:22.254Z,-1.60
2019-01-26T04:50:51.663Z,-1.60
2019-01-26T04:53:21.077Z,-1.60
2019-01-26T04:55:50.561Z,-1.60
2019-01-26T04:58:19.951Z,-1.60
2019-01-26T05:00:49.384Z,-1.60
2019-01-26T05:03:18.761Z,-1.60
2019-01-26T05:05:48.547Z,-1.60
2019-01-26T05:08:17.937Z,-1.60
2019-01-26T05:10:47.405Z,-1.60
2019-01-26T05:13:16.836Z,-1.50
2019-01-26T05:15:46.217Z,-1.50
2019-01-26T05:18:15.655Z,-1.50
2019-01-26T05:20:45.411Z,-1.50
2019-01-26T05:23:14.990Z,-1.50
2019-01-26T05:25:44.385Z,-1.50
2019-01-26T05:28:13.780Z,-1.50
2019-01-26T05:30:43.240Z,-1.50
2019-01-26T05:33:12.636Z,-1.40
2019-01-26T05:35:42.034Z,-1.40
2019-01-26T05:38:11.451Z,-1.40
2019-01-26T05:40:40.834Z,-1.40
2019-01-26T05:43:10.304Z,-1.40
2019-01-26T05:45:39.745Z,-1.40
2019-01-26T05:48:09.219Z,-1.40
2019-01-26T05:50:38.652Z,-1.40
2019-01-26T05:53:08.096Z,-1.40
2019-01-26T05:55:37.493Z,-1.30
2019-01-26T05:58:06.900Z,-1.30
2019-01-26T06:00:36.826Z,-1.30
2019-01-26T06:03:06.237Z,-1.30
2019-01-26T06:05:35.791Z,-1.30
2019-01-26T06:08:05.508Z,-1.20
2019-01-26T06:10:35.087Z,-1.20
2019-01-26T06:13:04.683Z,-1.20
2019-01-26T06:15:34.073Z,-1.20
2019-01-26T06:18:03.632Z,-1.20
2019-01-26T06:20:33.093Z,-1.10
2019-01-26T06:23:02.592Z,-1.10
2019-01-26T06:25:32.060Z,-1.10
2019-01-26T06:28:01.557Z,-1.10
2019-01-26T06:30:31.086Z,-1.00
2019-01-26T06:33:00.579Z,-1.10
2019-01-26T06:35:29.966Z,-1.00
2019-01-26T06:37:59.450Z,-1.00
2019-01-26T06:40:28.841Z,-1.00
2019-01-26T06:42:58.280Z,-0.90
2019-01-26T06:45:27.675Z,-1.00
2019-01-26T06:48:02.068Z,-0.90
2019-01-26T06:50:29.175Z,-0.90
2019-01-26T06:52:58.622Z,-0.90
2019-01-26T06:55:28.002Z,-0.80
2019-01-26T06:57:57.482Z,-0.90
2019-01-26T07:00:31.442Z,-0.80
2019-01-26T07:03:00.924Z,-0.80
2019-01-26T07:05:48.239Z,-0.80
2019-01-26T07:08:19.296Z,-0.80
2019-01-26T07:10:48.845Z,-0.70
2019-01-26T07:13:18.262Z,-0.70
2019-01-26T07:15:47.855Z,-0.80
2019-01-26T07:18:17.340Z,-0.70
2019-01-26T07:20:46.912Z,-0.70
2019-01-26T07:23:16.635Z,-0.70
2019-01-26T07:25:46.055Z,-0.70
2019-01-26T07:28:15.468Z,-0.60
2019-01-26T07:30:44.872Z,-0.60
2019-01-26T07:33:14.381Z,-0.60
2019-01-26T07:35:43.876Z,-0.50
2019-01-26T07:38:13.896Z,-0.60
2019-01-26T07:40:43.697Z,-0.50
2019-01-26T07:43:13.289Z,-0.50
2019-01-26T07:45:42.710Z,-0.50
2019-01-26T07:48:16.748Z,-0.40
2019-01-26T07:50:43.221Z,-0.40
2019-01-26T07:53:12.617Z,-0.40
2019-01-26T07:55:42.051Z,-0.40
2019-01-26T07:58:11.509Z,-0.40
2019-01-26T08:00:40.946Z,-0.40
2019-01-26T08:03:10.509Z,-0.40
2019-01-26T08:05:39.921Z,-0.30
2019-01-26T08:08:09.349Z,-0.30
2019-01-26T08:10:38.821Z,-0.30
2019-01-26T08:13:08.372Z,-0.30
2019-01-26T08:15:38.761Z,-0.30
2019-01-26T08:18:09.386Z,-0.30
2019-01-26T08:20:38.903Z,-0.30
2019-01-26T08:23:08.388Z,-0.30
2019-01-26T08:25:37.891Z,-0.30
2019-01-26T08:28:07.315Z,-0.30
2019-01-26T08:30:36.886Z,-0.30
2019-01-26T08:33:06.375Z,-0.20
2019-01-26T08:35:35.784Z,-0.20
2019-01-26T08:38:05.661Z,-0.20
2019-01-26T08:40:35.184Z,-0.20
2019-01-26T08:43:04.894Z,-0.20
2019-01-26T08:45:34.331Z,-0.10
2019-01-26T08:48:04.078Z,-0.20
2019-01-26T08:50:33.556Z,-0.20
2019-01-26T08:53:02.959Z,-0.10
2019-01-26T08:55:32.542Z,-0.10
2019-01-26T08:58:02.230Z,-0.10
2019-01-26T09:00:31.723Z,-0.10
2019-01-26T09:03:20.282Z,0.00
2019-01-26T09:06:14.644Z,0.00
2019-01-26T09:08:44.128Z,0.00
2019-01-26T09:11:13.627Z,0.00
2019-01-26T09:13:43.022Z,0.00
2019-01-26T09:16:12.492Z,0.10
2019-01-26T09:18:41.914Z,0.00
2019-01-26T09:21:11.334Z,0.10
2019-01-26T09:23:40.796Z,0.00
2019-01-26T09:26:10.296Z,0.10
2019-01-26T09:28:39.722Z,0.10
2019-01-26T09:31:09.240Z,0.10
2019-01-26T09:33:38.779Z,0.20
2019-01-26T09:36:08.250Z,0.10
2019-01-26T09:38:37.766Z,0.10
2019-01-26T09:41:07.237Z,0.20
2019-01-26T09:43:36.727Z,0.20
2019-01-26T09:46:06.418Z,0.20
2019-01-26T09:48:35.841Z,0.20
2019-01-26T09:51:05.406Z,0.20
2019-01-26T09:53:34.887Z,0.20
2019-01-26T09:56:04.443Z,0.30
2019-01-26T09:58:34.213Z,0.30
2019-01-26T10:01:04.109Z,0.30
2019-01-26T10:03:33.587Z,0.40
2019-01-26T10:06:03.046Z,0.40
2019-01-26T10:08:32.612Z,0.40
2019-01-26T10:11:02.107Z,0.40
2019-01-26T10:13:31.497Z,0.40
2019-01-26T10:16:01.001Z,0.40
2019-01-26T10:18:30.464Z,0.50
2019-01-26T10:20:59.961Z,0.50
2019-01-26T10:23:29.473Z,0.50
2019-01-26T10:25:58.981Z,0.50
2019-01-26T10:28:28.628Z,0.50
2019-01-26T10:31:03.380Z,0.50
2019-01-26T10:33:32.821Z,0.50
2019-01-26T10:36:21.344Z,0.60
2019-01-26T10:39:02.431Z,0.60
2019-01-26T10:42:02.958Z,0.60
2019-01-26T10:44:33.770Z,0.60
2019-01-26T10:47:04.191Z,0.60
2019-01-26T10:49:33.843Z,0.60
2019-01-26T10:52:03.478Z,0.60
2019-01-26T10:54:32.998Z,0.70
2019-01-26T10:57:02.460Z,0.70
2019-01-26T10:59:31.992Z,0.70
2019-01-26T11:02:01.427Z,0.70
2019-01-26T11:04:30.912Z,0.70
2019-01-26T11:07:00.412Z,0.70
2019-01-26T11:09:29.901Z,0.80
2019-01-26T11:11:59.450Z,0.80
2019-01-26T11:14:28.958Z,0.80
2019-01-26T11:16:58.378Z,0.80
2019-01-26T11:19:27.823Z,0.80
2019-01-26T11:21:57.325Z,0.80
2019-01-26T11:24:26.814Z,0.80
2019-01-26T11:26:56.430Z,0.90
2019-01-26T11:29:25.865Z,0.90
2019-01-26T11:31:55.292Z,0.90
2019-01-26T11:34:24.813Z,0.90
2019-01-26T11:36:54.231Z,0.90
2019-01-26T11:39:23.717Z,1.00
2019-01-26T11:41:53.314Z,1.00
2019-01-26T11:44:22.746Z,1.00
2019-01-26T11:47:00.491Z,1.10
2019-01-26T11:49:30.016Z,1.10
2019-01-26T11:52:09.662Z,1.10
2019-01-26T11:55:05.255Z,1.10
2019-01-26T11:57:36.946Z,1.10
2019-01-26T12:00:32.408Z,1.20
2019-01-26T12:03:16.175Z,1.20
2019-01-26T12:05:51.822Z,1.20
2019-01-26T12:08:21.242Z,1.20
2019-01-26T12:10:50.659Z,1.30
2019-01-26T12:13:20.288Z,1.30
2019-01-26T12:15:49.806Z,1.30
2019-01-26T12:18:19.351Z,1.30
2019-01-26T12:20:48.767Z,1.30
2019-01-26T12:23:18.218Z,1.40
2019-01-26T12:25:47.650Z,1.40
2019-01-26T12:28:17.138Z,1.40
2019-01-26T12:30:46.588Z,1.50
2019-01-26T12:33:16.155Z,1.50
2019-01-26T12:35:45.686Z,1.50
2019-01-26T12:38:15.168Z,1.50
2019-01-26T12:40:44.782Z,1.50
2019-01-26T12:43:14.356Z,1.50
2019-01-26T12:45:43.858Z,1.50
2019-01-26T12:48:13.565Z,1.60
2019-01-26T12:50:42.994Z,1.50
2019-01-26T12:53:12.521Z,1.60
2019-01-26T12:55:42.162Z,1.60
2019-01-26T12:58:11.734Z,1.60
2019-01-26T13:00:41.411Z,1.60
2019-01-26T13:03:10.870Z,1.60
2019-01-26T13:05:40.282Z,1.60
2019-01-26T13:08:10.042Z,1.70
2019-01-26T13:10:43.437Z,1.70
2019-01-26T13:13:13.003Z,1.70
2019-01-26T13:15:42.605Z,1.70
2019-01-26T13:18:12.252Z,1.70
2019-01-26T13:20:41.878Z,1.70
2019-01-26T13:23:11.523Z,1.70
2019-01-26T13:25:41.074Z,1.70
2019-01-26T13:28:10.601Z,1.70
2019-01-26T13:30:40.008Z,1.70
2019-01-26T13:33:09.393Z,1.80
2019-01-26T13:35:38.827Z,1.80
2019-01-26T13:38:08.343Z,1.80
2019-01-26T13:40:37.768Z,1.70
2019-01-26T13:43:07.181Z,1.80
2019-01-26T13:45:36.625Z,1.80
2019-01-26T13:48:06.114Z,1.80
2019-01-26T13:50:35.554Z,1.80
2019-01-26T13:53:05.119Z,1.80
2019-01-26T13:55:34.564Z,1.70
2019-01-26T13:58:04.322Z,1.70
2019-01-26T14:00:33.937Z,1.70
2019-01-26T14:03:03.518Z,1.70
2019-01-26T14:05:33.139Z,1.70
2019-01-26T14:08:02.579Z,1.70
2019-01-26T14:10:32.023Z,1.80
2019-01-26T14:13:01.480Z,1.80
2019-01-26T14:15:30.954Z,1.80
2019-01-26T14:18:00.345Z,1.80
2019-01-26T14:20:29.846Z,1.80
2019-01-26T14:22:59.380Z,1.70
2019-01-26T14:25:28.868Z,1.70
2019-01-26T14:27:58.410Z,1.80
2019-01-26T14:30:34.115Z,1.80
2019-01-26T14:33:03.629Z,1.80
2019-01-26T14:35:33.042Z,1.80
2019-01-26T14:38:02.546Z,1.80
2019-01-26T14:40:32.089Z,1.80
2019-01-26T14:43:01.544Z,1.80
2019-01-26T14:45:31.016Z,1.80
2019-01-26T14:48:00.484Z,1.90
2019-01-26T14:50:29.985Z,1.80
2019-01-26T14:52:59.443Z,1.80
2019-01-26T14:55:29.060Z,1.80
2019-01-26T14:57:59.839Z,1.80
2019-01-26T15:00:31.133Z,1.80
2019-01-26T15:03:00.556Z,1.80
2019-01-26T15:05:30.629Z,1.80
2019-01-26T15:08:00.465Z,1.80
2019-01-26T15:10:29.923Z,1.80
2019-01-26T15:12:59.457Z,1.80
2019-01-26T15:15:28.931Z,1.80
2019-01-26T15:17:58.483Z,1.80
2019-01-26T15:20:30.490Z,1.70
2019-01-26T15:23:00.254Z,1.80
2019-01-26T15:25:29.806Z,1.70
2019-01-26T15:27:59.283Z,1.80
2019-01-26T15:30:31.365Z,1.70
2019-01-26T15:33:00.986Z,1.70
2019-01-26T15:35:30.522Z,1.80
2019-01-26T15:38:00.072Z,1.80
2019-01-26T15:40:29.532Z,1.80
2019-01-26T15:42:59.099Z,1.70
2019-01-26T15:45:34.320Z,1.80
2019-01-26T15:48:03.973Z,1.80
2019-01-26T15:50:33.489Z,1.70
2019-01-26T15:53:03.039Z,1.70
2019-01-26T15:55:32.657Z,1.80
2019-01-26T15:58:02.371Z,1.70
2019-01-26T16:00:34.141Z,1.70
2019-01-26T16:03:03.797Z,1.70
2019-01-26T16:05:33.432Z,1.70
2019-01-26T16:08:03.114Z,1.70
2019-01-26T16:10:32.576Z,1.80
2019-01-26T16:13:02.122Z,1.70
2019-01-26T16:15:32.535Z,1.70
2019-01-26T16:18:02.199Z,1.70
2019-01-26T16:20:31.704Z,1.70
2019-01-26T16:23:09.357Z,1.70
2019-01-26T16:25:37.068Z,1.70
2019-01-26T16:28:06.712Z,1.70
2019-01-26T16:30:36.565Z,1.70
2019-01-26T16:33:06.127Z,1.70
2019-01-26T16:35:35.905Z,1.70
2019-01-26T16:38:05.771Z,1.70
2019-01-26T16:40:37.523Z,1.70
2019-01-26T16:43:07.063Z,1.70
2019-01-26T16:45:38.143Z,1.70
2019-01-26T16:48:10.351Z,1.70
2019-01-26T16:50:39.798Z,1.70
2019-01-26T16:53:09.604Z,1.70
2019-01-26T16:55:39.255Z,1.70
2019-01-26T16:58:08.802Z,1.70
2019-01-26T17:00:43.819Z,1.70
2019-01-26T17:03:13.623Z,1.70
2019-01-26T17:05:43.564Z,1.70
2019-01-26T17:08:13.621Z,1.70
2019-01-26T17:10:45.508Z,1.70
2019-01-26T17:13:15.187Z,1.70
2019-01-26T17:15:44.631Z,1.70
2019-01-26T17:18:14.395Z,1.70
2019-01-26T17:20:44.664Z,1.70
2019-01-26T17:23:14.136Z,1.70
2019-01-26T17:25:43.660Z,1.70
2019-01-26T17:28:13.247Z,1.70
2019-01-26T17:30:43.662Z,1.70
2019-01-26T17:33:13.317Z,1.70
2019-01-26T17:35:43.230Z,1.80
2019-01-26T17:38:12.927Z,1.70
2019-01-26T17:40:42.535Z,1.70
2019-01-26T17:43:12.105Z,1.70
2019-01-26T17:45:41.644Z,1.80
2019-01-26T17:48:11.373Z,1.70
2019-01-26T17:50:42.250Z,1.80
2019-01-26T17:53:12.215Z,1.80
2019-01-26T17:55:42.044Z,1.80
2019-01-26T17:58:11.798Z,1.80
2019-01-26T18:01:06.530Z,1.80
2019-01-26T18:03:37.435Z,1.80
2019-01-26T18:06:06.942Z,1.80
2019-01-26T18:08:36.412Z,1.80
2019-01-26T18:11:06.342Z,1.80
2019-01-26T18:13:35.964Z,1.80
2019-01-26T18:16:06.030Z,1.70
2019-01-26T18:18:35.884Z,1.80
2019-01-26T18:21:05.527Z,1.70
2019-01-26T18:23:35.407Z,1.80
2019-01-26T18:26:05.735Z,1.70
2019-01-26T18:28:38.298Z,1.70
2019-01-26T18:31:07.968Z,1.70
2019-01-26T18:33:37.552Z,1.70
2019-01-26T18:36:08.658Z,1.70
2019-01-26T18:38:39.371Z,1.70
2019-01-26T18:41:09.012Z,1.70
2019-01-26T18:43:40.344Z,1.70
2019-01-26T18:46:10.073Z,1.70
2019-01-26T18:48:41.038Z,1.70
2019-01-26T18:51:11.847Z,1.70
2019-01-26T18:53:42.663Z,1.70
2019-01-26T18:56:13.602Z,1.70
2019-01-26T18:58:44.455Z,1.70
2019-01-26T19:01:14.344Z,1.70
2019-01-26T19:04:27.351Z,1.70
2019-01-26T19:06:56.972Z,1.70
2019-01-26T19:09:28.707Z,1.70
2019-01-26T19:11:59.580Z,1.70
2019-01-26T19:14:29.547Z,1.70
2019-01-26T19:16:59.751Z,1.70
2019-01-26T19:19:29.368Z,1.70
2019-01-26T19:21:58.943Z,1.70
2019-01-26T19:24:29.075Z,1.70
2019-01-26T19:26:58.684Z,1.70
2019-01-26T19:29:30.726Z,1.70
2019-01-26T19:32:00.362Z,1.60
2019-01-26T19:34:30.273Z,1.60
2019-01-26T19:37:00.108Z,1.70
2019-01-26T19:39:29.640Z,1.60
2019-01-26T19:41:59.536Z,1.70
2019-01-26T19:44:31.517Z,1.60
2019-01-26T19:47:01.718Z,1.70
2019-01-26T19:49:31.243Z,1.70
2019-01-26T19:52:01.678Z,1.60
2019-01-26T19:54:32.593Z,1.60
2019-01-26T19:57:04.468Z,1.60
2019-01-26T19:59:38.548Z,1.70
2019-01-26T20:02:08.219Z,1.60
2019-01-26T20:04:40.970Z,1.60
2019-01-26T20:07:11.767Z,1.70
2019-01-26T20:09:43.254Z,1.60
2019-01-26T20:12:13.082Z,1.70
2019-01-26T20:14:43.345Z,1.70
2019-01-26T20:17:17.150Z,1.70
2019-01-26T20:19:46.759Z,1.70
2019-01-26T20:22:16.879Z,1.70
2019-01-26T20:24:47.127Z,1.70
2019-01-26T20:27:19.043Z,1.70
2019-01-26T20:29:52.861Z,1.70
2019-01-26T20:32:23.273Z,1.70
2019-01-26T20:34:54.927Z,1.70
2019-01-26T20:37:25.997Z,1.70
2019-01-26T20:39:55.595Z,1.70
2019-01-26T20:42:25.462Z,1.70
2019-01-26T20:44:55.071Z,1.70
2019-01-26T20:47:26.191Z,1.70
2019-01-26T20:49:56.211Z,1.70
2019-01-26T20:52:27.636Z,1.70
2019-01-26T20:54:58.098Z,1.70
2019-01-26T20:57:27.957Z,1.70
2019-01-26T20:59:58.072Z,1.80
2019-01-26T21:02:29.565Z,1.80
2019-01-26T21:05:00.655Z,1.80
2019-01-26T21:07:31.726Z,1.80
2019-01-26T21:10:02.549Z,1.80
2019-01-26T21:12:32.242Z,1.80
2019-01-26T21:15:05.687Z,1.80
2019-01-26T21:17:35.272Z,1.80
2019-01-26T21:20:06.921Z,1.90
2019-01-26T21:22:36.446Z,1.90
2019-01-26T21:25:08.100Z,1.90
2019-01-26T21:27:39.111Z,1.90
2019-01-26T21:30:19.006Z,1.90
2019-01-26T21:32:48.713Z,1.90
2019-01-26T21:35:25.689Z,1.90
2019-01-26T21:37:59.572Z,2.00
2019-01-26T21:40:30.979Z,2.00
2019-01-26T21:43:01.662Z,2.00
2019-01-26T21:45:31.731Z,2.10
2019-01-26T21:48:01.367Z,2.00
2019-01-26T21:50:31.588Z,2.00
2019-01-26T21:53:01.163Z,2.10
2019-01-26T21:55:30.743Z,2.10
2019-01-26T21:58:00.289Z,2.20
2019-01-26T22:00:31.907Z,2.20
2019-01-26T22:03:02.230Z,2.20
2019-01-26T22:05:32.124Z,2.20
2019-01-26T22:08:01.861Z,2.30
2019-01-26T22:10:31.410Z,2.20
2019-01-26T22:13:01.341Z,2.30
2019-01-26T22:15:30.931Z,2.30
2019-01-26T22:18:00.520Z,2.30
2019-01-26T22:20:30.257Z,2.30
2019-01-26T22:22:59.768Z,2.40
2019-01-26T22:25:29.490Z,2.40
2019-01-26T22:28:00.810Z,2.40
2019-01-26T22:30:35.019Z,2.50
2019-01-26T22:33:05.821Z,2.50
2019-01-26T22:35:37.394Z,2.60
2019-01-26T22:38:06.926Z,2.60
2019-01-26T22:40:37.325Z,2.60
2019-01-26T22:43:08.931Z,2.60
2019-01-26T22:45:38.407Z,2.70
2019-01-26T22:48:08.046Z,2.70
2019-01-26T22:50:37.474Z,2.70
2019-01-26T22:53:06.936Z,2.70
2019-01-26T22:55:36.448Z,2.70
2019-01-26T22:58:06.115Z,2.70
2019-01-26T23:01:11.974Z,2.80
2019-01-26T23:04:00.463Z,2.80
2019-01-26T23:06:41.602Z,2.80
2019-01-26T23:09:24.544Z,2.80
2019-01-26T23:12:23.028Z,2.80
2019-01-26T23:15:35.229Z,2.80
2019-01-26T23:18:30.856Z,2.80
2019-01-26T23:21:43.811Z,2.80
2019-01-26T23:24:38.475Z,2.80
2019-01-26T23:27:39.894Z,2.90
2019-01-26T23:30:45.317Z,2.80
2019-01-26T23:33:14.877Z,2.90
2019-01-26T23:35:44.440Z,2.90
2019-01-26T23:38:13.864Z,2.90
2019-01-26T23:40:43.284Z,2.90
2019-01-26T23:43:12.802Z,2.90
2019-01-26T23:45:42.251Z,2.90
2019-01-26T23:48:11.671Z,2.90
2019-01-26T23:50:41.073Z,2.90
2019-01-26T23:53:10.589Z,3.00
2019-01-26T23:55:39.987Z,2.90
2019-01-26T23:58:09.585Z,2.90
